createdAt,value
2022-09-12T00:01:51.853Z,6.35
2022-09-12T00:04:21.698Z,5.70
2022-09-12T00:06:51.593Z,4.95
2022-09-12T00:09:23.055Z,6.05
2022-09-12T00:11:52.796Z,5.77
2022-09-12T00:14:22.724Z,4.57
2022-09-12T00:16:52.796Z,7.18
2022-09-12T00:19:22.536Z,6.25
2022-09-12T00:21:52.514Z,4.95
2022-09-12T00:24:24.095Z,5.25
2022-09-12T00:26:53.835Z,5.17
2022-09-12T00:29:25.091Z,5.28
2022-09-12T00:31:54.925Z,5.47
2022-09-12T00:34:24.711Z,5.25
2022-09-12T00:36:54.696Z,6.30
2022-09-12T00:39:26.136Z,4.45
2022-09-12T00:41:56.396Z,11.73
2022-09-12T00:44:54.314Z,4.40
2022-09-12T00:47:29.115Z,6.20
2022-09-12T00:52:13.856Z,5.97
2022-09-12T00:54:49.383Z,5.18
2022-09-12T00:57:21.011Z,14.57
2022-09-12T00:59:59.875Z,5.27
2022-09-12T01:02:30.796Z,6.60
2022-09-12T01:05:00.795Z,6.45
2022-09-12T01:07:33.414Z,5.40
2022-09-12T01:10:07.603Z,7.07
2022-09-12T01:12:41.572Z,5.93
2022-09-12T01:15:12.697Z,4.72
2022-09-12T01:17:57.896Z,4.53
2022-09-12T01:21:12.052Z,6.57
2022-09-12T01:24:55.794Z,5.85
2022-09-12T01:30:42.243Z,5.57
2022-09-12T01:33:49.292Z,6.93
2022-09-12T01:36:41.835Z,6.18
2022-09-12T01:39:28.577Z,8.80
2022-09-12T01:42:12.144Z,7.50
2022-09-12T01:44:52.436Z,4.78
2022-09-12T01:47:32.695Z,5.68
2022-09-12T01:50:08.532Z,4.95
2022-09-12T01:52:46.855Z,6.00
2022-09-12T01:55:22.872Z,9.20
2022-09-12T01:57:59.955Z,6.18
2022-09-12T02:00:30.514Z,7.68
2022-09-12T02:03:10.675Z,4.72
2022-09-12T02:05:44.894Z,6.38
2022-09-12T02:08:20.154Z,6.30
2022-09-12T02:10:55.317Z,4.15
2022-09-12T02:13:31.500Z,5.20
2022-09-12T02:16:08.175Z,6.18
2022-09-12T02:18:44.375Z,4.68
2022-09-12T02:21:15.490Z,7.88
2022-09-12T02:23:52.964Z,5.18
2022-09-12T02:26:30.994Z,5.88
2022-09-12T02:29:00.975Z,5.85
2022-09-12T02:31:35.616Z,7.10
2022-09-12T02:34:21.871Z,4.35
2022-09-12T02:37:03.075Z,5.18
2022-09-12T02:39:33.025Z,13.52
2022-09-12T02:42:05.034Z,6.88
2022-09-12T02:44:37.332Z,4.05
2022-09-12T02:47:11.761Z,5.55
2022-09-12T02:49:43.172Z,9.43
2022-09-12T02:52:13.071Z,6.40
2022-09-12T02:54:43.547Z,4.63
2022-09-12T02:57:22.573Z,4.03
2022-09-12T02:59:56.872Z,5.20
2022-09-12T03:02:39.852Z,3.90
2022-09-12T03:05:33.124Z,9.57
2022-09-12T03:08:41.818Z,8.65
2022-09-12T03:12:04.322Z,3.67
2022-09-12T03:15:12.674Z,3.58
2022-09-12T03:18:10.184Z,8.10
2022-09-12T03:20:55.714Z,5.90
2022-09-12T03:23:35.031Z,4.78
2022-09-12T03:26:12.772Z,5.15
2022-09-12T03:28:45.698Z,4.90
2022-09-12T03:31:17.876Z,3.67
2022-09-12T03:33:48.335Z,3.78
2022-09-12T03:36:24.720Z,3.33
2022-09-12T03:38:54.979Z,2.83
2022-09-12T03:41:25.195Z,3.20
2022-09-12T03:43:58.771Z,4.57
2022-09-12T03:46:28.651Z,3.38
2022-09-12T03:48:58.375Z,4.15
2022-09-12T03:53:12.965Z,3.55
2022-09-12T03:55:45.196Z,5.57
2022-09-12T03:58:15.093Z,3.20
2022-09-12T04:00:44.948Z,3.42
2022-09-12T04:03:15.016Z,4.88
2022-09-12T04:05:44.972Z,4.20
2022-09-12T04:08:16.451Z,2.58
2022-09-12T04:10:47.020Z,4.70
2022-09-12T04:13:16.973Z,5.07
2022-09-12T04:15:59.337Z,3.13
2022-09-12T04:18:29.837Z,3.75
2022-09-12T04:21:00.191Z,8.02
2022-09-12T04:23:31.486Z,4.38
2022-09-12T04:26:03.391Z,3.10
2022-09-12T04:28:33.276Z,3.25
2022-09-12T04:31:07.289Z,4.82
2022-09-12T04:33:38.495Z,4.70
2022-09-12T04:36:11.314Z,5.90
2022-09-12T04:38:42.672Z,5.32
2022-09-12T04:41:16.241Z,6.00
2022-09-12T04:43:47.698Z,3.65
2022-09-12T04:46:20.418Z,3.42
2022-09-12T04:48:56.070Z,5.07
2022-09-12T04:51:29.977Z,4.15
2022-09-12T04:54:03.764Z,3.50
2022-09-12T04:56:34.716Z,5.35
2022-09-12T04:59:04.520Z,6.20
2022-09-12T05:01:34.486Z,7.68
2022-09-12T05:04:04.973Z,6.78
2022-09-12T05:06:38.598Z,6.40
2022-09-12T05:09:14.518Z,5.38
2022-09-12T05:12:03.893Z,3.55
2022-09-12T05:14:35.995Z,4.50
2022-09-12T05:17:07.511Z,1.83
2022-09-12T05:19:38.057Z,2.60
2022-09-12T05:22:08.072Z,3.45
2022-09-12T05:24:39.552Z,2.88
2022-09-12T05:27:09.357Z,2.70
2022-09-12T05:29:39.293Z,6.40
2022-09-12T05:32:10.044Z,2.20
2022-09-12T05:34:40.452Z,4.40
2022-09-12T05:37:10.575Z,1.75
2022-09-12T05:39:41.828Z,3.35
2022-09-12T05:42:12.498Z,6.20
2022-09-12T05:44:42.371Z,2.47
2022-09-12T05:47:14.557Z,3.08
2022-09-12T05:49:45.053Z,2.75
2022-09-12T05:52:15.176Z,5.18
2022-09-12T05:54:47.916Z,1.75
2022-09-12T05:57:17.693Z,1.30
2022-09-12T05:59:47.932Z,2.53
2022-09-12T06:02:17.770Z,4.30
2022-09-12T06:04:47.633Z,6.15
2022-09-12T06:07:17.525Z,1.73
2022-09-12T06:09:48.893Z,3.47
2022-09-12T06:12:18.714Z,2.65
2022-09-12T06:14:48.436Z,2.53
2022-09-12T06:17:19.154Z,2.25
2022-09-12T06:19:50.393Z,3.65
2022-09-12T06:22:20.512Z,1.17
2022-09-12T06:24:54.843Z,2.00
2022-09-12T06:27:27.777Z,2.25
2022-09-12T06:29:57.611Z,2.28
2022-09-12T06:32:27.539Z,2.88
2022-09-12T06:34:58.103Z,2.50
2022-09-12T06:37:28.757Z,1.60
2022-09-12T06:40:01.940Z,0.90
2022-09-12T06:42:31.997Z,0.70
2022-09-12T06:45:01.896Z,1.08
2022-09-12T06:47:31.698Z,1.42
2022-09-12T06:53:10.061Z,2.45
2022-09-12T06:55:40.002Z,1.40
2022-09-12T06:58:09.934Z,2.65
2022-09-12T07:00:40.451Z,2.38
2022-09-12T07:03:10.215Z,1.10
2022-09-12T07:05:40.532Z,1.20
2022-09-12T07:08:11.746Z,3.08
2022-09-12T07:10:41.555Z,3.17
2022-09-12T07:13:11.355Z,1.90
2022-09-12T07:15:41.326Z,5.22
2022-09-12T07:18:14.338Z,1.30
2022-09-12T07:20:44.270Z,2.80
2022-09-12T07:23:15.498Z,1.40
2022-09-12T07:25:45.434Z,0.60
2022-09-12T07:28:15.185Z,1.10
2022-09-12T07:30:45.021Z,0.52
2022-09-12T07:33:15.053Z,0.50
2022-09-12T07:35:44.794Z,0.82
2022-09-12T07:38:16.326Z,0.70
2022-09-12T07:40:46.700Z,0.80
2022-09-12T07:43:16.662Z,1.85
2022-09-12T07:45:46.847Z,0.60
2022-09-12T07:48:16.702Z,0.75
2022-09-12T07:50:46.454Z,0.50
2022-09-12T07:53:17.739Z,2.35
2022-09-12T07:55:54.925Z,1.15
2022-09-12T07:58:25.012Z,1.23
2022-09-12T08:00:55.325Z,0.40
2022-09-12T08:03:25.200Z,1.45
2022-09-12T08:05:55.152Z,0.45
2022-09-12T08:08:26.562Z,0.50
2022-09-12T08:11:00.274Z,2.47
2022-09-12T08:13:30.854Z,0.50
2022-09-12T08:16:01.439Z,1.08
2022-09-12T08:18:33.015Z,0.98
2022-09-12T08:21:04.188Z,0.85
2022-09-12T08:23:36.814Z,1.27
2022-09-12T08:26:08.554Z,1.77
2022-09-12T08:28:40.771Z,0.40
2022-09-12T08:31:14.087Z,3.53
2022-09-12T08:33:44.492Z,0.80
2022-09-12T08:36:16.723Z,16.50
2022-09-12T08:41:28.803Z,0.50
2022-09-12T08:44:23.630Z,0.52
2022-09-12T08:47:27.511Z,2.35
2022-09-12T08:50:08.239Z,0.30
2022-09-12T08:52:45.571Z,1.10
2022-09-12T08:55:33.928Z,0.75
2022-09-12T08:58:12.104Z,1.67
2022-09-12T09:00:52.592Z,1.88
2022-09-12T09:03:48.016Z,0.55
2022-09-12T09:06:36.038Z,2.75
2022-09-12T09:09:15.294Z,4.53
2022-09-12T09:12:02.756Z,0.80
2022-09-12T09:14:55.572Z,0.52
2022-09-12T09:17:29.531Z,0.55
2022-09-12T09:20:07.871Z,2.80
2022-09-12T09:22:44.892Z,0.30
2022-09-12T09:25:23.122Z,0.30
2022-09-12T09:28:02.598Z,0.30
2022-09-12T09:30:33.472Z,0.20
2022-09-12T09:33:07.925Z,0.65
2022-09-12T09:35:46.644Z,0.40
2022-09-12T09:38:27.010Z,1.00
2022-09-12T09:41:36.572Z,0.75
2022-09-12T09:46:42.802Z,0.30
2022-09-12T09:49:16.081Z,1.88
2022-09-12T09:53:17.977Z,1.65
2022-09-12T09:55:48.594Z,0.50
2022-09-12T09:58:32.853Z,1.38
2022-09-12T10:01:04.581Z,0.50
2022-09-12T10:03:39.312Z,2.85
2022-09-12T10:06:33.194Z,0.50
2022-09-12T10:09:24.013Z,0.70
2022-09-12T10:11:57.051Z,0.70
2022-09-12T10:14:39.746Z,0.93
2022-09-12T10:17:31.774Z,0.90
2022-09-12T10:20:22.739Z,0.80
2022-09-12T10:22:52.916Z,0.80
2022-09-12T10:25:27.971Z,0.60
2022-09-12T10:28:01.616Z,1.02
2022-09-12T10:30:31.586Z,0.93
2022-09-12T10:33:10.334Z,0.95
2022-09-12T10:35:49.602Z,1.45
2022-09-12T10:38:26.444Z,1.60
2022-09-12T10:41:05.192Z,2.00
2022-09-12T10:43:39.602Z,1.13
2022-09-12T10:46:31.373Z,3.78
2022-09-12T10:49:38.428Z,2.15
2022-09-12T10:52:25.509Z,0.60
2022-09-12T10:54:55.833Z,1.33
2022-09-12T10:58:12.912Z,1.13
2022-09-12T11:00:49.874Z,1.33
2022-09-12T11:03:32.332Z,1.15
2022-09-12T11:06:04.357Z,1.95
2022-09-12T11:11:48.300Z,3.03
2022-09-12T11:14:42.674Z,0.90
2022-09-12T11:17:27.532Z,1.40
2022-09-12T11:20:34.836Z,0.82
2022-09-12T11:23:45.008Z,2.72
2022-09-12T11:26:34.057Z,1.00
2022-09-12T11:29:18.178Z,1.02
2022-09-12T11:32:34.273Z,1.73
2022-09-12T11:35:18.184Z,1.27
2022-09-12T11:38:30.292Z,1.27
2022-09-12T11:41:05.755Z,1.25
2022-09-12T11:43:42.388Z,1.52
2022-09-12T11:46:24.582Z,2.17
2022-09-12T11:49:01.089Z,1.50
2022-09-12T11:51:35.875Z,1.30
2022-09-12T11:54:16.343Z,1.95
2022-09-12T11:56:50.446Z,0.98
2022-09-12T11:59:41.900Z,0.70
2022-09-12T12:02:19.571Z,1.25
2022-09-12T12:05:07.632Z,1.80
2022-09-12T12:07:45.780Z,1.60
2022-09-12T12:10:34.053Z,5.50
2022-09-12T12:13:13.877Z,0.95
2022-09-12T12:15:50.187Z,2.00
2022-09-12T12:18:24.472Z,1.20
2022-09-12T12:20:57.954Z,1.13
2022-09-12T12:23:32.094Z,0.90
2022-09-12T12:26:04.112Z,2.22
2022-09-12T12:31:29.288Z,1.10
2022-09-12T12:34:33.351Z,1.20
2022-09-12T12:37:50.534Z,1.38
2022-09-12T12:40:28.257Z,1.20
2022-09-12T12:43:08.384Z,1.63
2022-09-12T12:46:08.019Z,2.03
2022-09-12T12:49:11.321Z,1.23
2022-09-12T12:53:19.977Z,1.40
2022-09-12T12:55:53.137Z,1.60
2022-09-12T12:58:43.332Z,1.42
2022-09-12T13:01:16.639Z,1.60
2022-09-12T13:03:49.493Z,2.22
2022-09-12T13:06:36.891Z,1.60
2022-09-12T13:09:11.477Z,1.58
2022-09-12T13:11:43.368Z,1.52
2022-09-12T13:14:58.791Z,2.53
2022-09-12T13:17:35.554Z,1.98
2022-09-12T13:20:27.812Z,1.85
2022-09-12T13:23:00.499Z,1.70
2022-09-12T13:25:35.036Z,4.78
2022-09-12T13:28:16.096Z,2.00
2022-09-12T13:30:49.330Z,2.13
2022-09-12T13:33:29.471Z,2.20
2022-09-12T13:36:33.843Z,3.30
2022-09-12T13:39:23.904Z,2.10
2022-09-12T13:42:34.287Z,2.20
2022-09-12T13:45:11.599Z,2.30
2022-09-12T13:47:46.309Z,2.25
2022-09-12T13:50:22.598Z,2.03
2022-09-12T13:52:57.743Z,2.28
2022-09-12T13:55:33.633Z,2.55
2022-09-12T13:58:07.095Z,4.38
2022-09-12T14:00:38.195Z,2.90
2022-09-12T14:03:46.759Z,4.45
2022-09-12T14:06:16.875Z,3.13
2022-09-12T14:08:48.611Z,3.85
2022-09-12T14:11:27.960Z,4.43
2022-09-12T14:14:00.197Z,2.88
2022-09-12T14:16:31.631Z,5.43
2022-09-12T14:19:02.204Z,4.13
2022-09-12T14:21:38.296Z,3.40
2022-09-12T14:24:11.531Z,3.05
2022-09-12T14:26:43.232Z,3.20
2022-09-12T14:29:18.701Z,5.43
2022-09-12T14:31:48.673Z,3.25
2022-09-12T14:34:21.101Z,3.20
2022-09-12T14:36:55.377Z,4.03
2022-09-12T14:39:32.264Z,3.10
2022-09-12T14:42:09.216Z,3.58
2022-09-12T14:44:41.431Z,3.60
2022-09-12T14:49:46.852Z,6.00
2022-09-12T14:52:29.595Z,4.20
2022-09-12T14:55:02.766Z,3.88
2022-09-12T14:57:41.495Z,3.67
2022-09-12T15:00:24.572Z,5.03
2022-09-12T15:02:55.714Z,3.80
2022-09-12T15:05:30.359Z,5.65
2022-09-12T15:08:02.535Z,4.15
2022-09-12T15:13:22.482Z,4.63
2022-09-12T15:15:56.748Z,3.72
2022-09-12T15:18:28.373Z,4.25
2022-09-12T15:21:02.904Z,5.35
2022-09-12T15:23:41.599Z,6.00
2022-09-12T15:26:14.842Z,7.72
2022-09-12T15:28:46.072Z,4.70
2022-09-12T15:31:26.549Z,4.63
2022-09-12T15:33:58.595Z,4.88
2022-09-12T15:36:29.219Z,5.20
2022-09-12T15:38:59.184Z,6.25
2022-09-12T15:41:34.876Z,6.82
2022-09-12T15:44:06.738Z,8.68
2022-09-12T15:46:38.133Z,5.57
2022-09-12T15:49:08.087Z,10.23
2022-09-12T15:53:10.923Z,5.68
2022-09-12T15:55:41.995Z,6.70
2022-09-12T15:58:12.300Z,5.47
2022-09-12T16:00:42.177Z,6.82
2022-09-12T16:03:24.514Z,7.90
2022-09-12T16:05:59.480Z,7.32
2022-09-12T16:08:33.403Z,7.25
2022-09-12T16:11:07.115Z,6.82
2022-09-12T16:13:37.191Z,7.07
2022-09-12T16:16:07.994Z,8.45
2022-09-12T16:18:37.938Z,14.57
2022-09-12T16:21:12.664Z,7.88
2022-09-12T16:23:47.384Z,10.18
2022-09-12T16:26:18.033Z,10.75
2022-09-12T16:28:48.675Z,10.70
2022-09-12T16:31:18.794Z,9.45
2022-09-12T16:33:48.911Z,10.25
2022-09-12T16:36:21.574Z,13.68
2022-09-12T16:38:55.472Z,11.23
2022-09-12T16:41:27.154Z,10.98
2022-09-12T16:43:57.384Z,9.50
2022-09-12T16:46:29.882Z,9.85
2022-09-12T16:49:01.797Z,11.07
2022-09-12T16:51:36.992Z,11.05
2022-09-12T16:54:08.472Z,11.18
2022-09-12T16:56:38.295Z,10.13
2022-09-12T16:59:09.947Z,11.05
2022-09-12T17:01:39.767Z,11.60
2022-09-12T17:04:10.215Z,9.95
2022-09-12T17:06:40.416Z,10.20
2022-09-12T17:09:13.461Z,11.93
2022-09-12T17:11:43.391Z,11.45
2022-09-12T17:14:13.432Z,9.02
2022-09-12T17:16:50.834Z,10.65
2022-09-12T17:19:26.753Z,11.30
2022-09-12T17:21:57.295Z,9.48
2022-09-12T17:24:29.220Z,11.95
2022-09-12T17:26:59.754Z,14.20
2022-09-12T17:29:29.561Z,11.30
2022-09-12T17:31:59.532Z,11.77
2022-09-12T17:34:29.617Z,9.23
2022-09-12T17:36:59.515Z,10.32
2022-09-12T17:39:31.182Z,11.80
2022-09-12T17:42:01.795Z,10.83
2022-09-12T17:44:31.605Z,10.95
2022-09-12T17:47:01.404Z,9.93
2022-09-12T17:49:31.507Z,10.63
2022-09-12T17:52:02.710Z,10.30
2022-09-12T17:54:34.024Z,8.85
2022-09-12T17:57:05.255Z,10.80
2022-09-12T17:59:34.991Z,9.60
2022-09-12T18:02:16.532Z,9.82
2022-09-12T18:04:48.551Z,9.48
2022-09-12T18:07:20.533Z,12.73
2022-09-12T18:09:53.779Z,10.65
2022-09-12T18:12:23.651Z,11.23
2022-09-12T18:14:53.752Z,13.57
2022-09-12T18:17:23.533Z,10.18
2022-09-12T18:19:54.254Z,11.13
2022-09-12T18:22:24.175Z,9.45
2022-09-12T18:24:55.564Z,9.07
2022-09-12T18:27:25.342Z,13.10
2022-09-12T18:30:17.245Z,10.98
2022-09-12T18:32:45.096Z,10.00
2022-09-12T18:35:15.784Z,12.07
2022-09-12T18:37:45.734Z,8.52
2022-09-12T18:40:17.148Z,9.65
2022-09-12T18:42:46.976Z,9.35
2022-09-12T18:45:17.183Z,8.82
2022-09-12T18:47:46.964Z,10.07
2022-09-12T18:53:09.468Z,11.57
2022-09-12T18:55:39.194Z,12.77
2022-09-12T18:58:09.060Z,9.77
2022-09-12T19:00:41.262Z,11.05
2022-09-12T19:03:11.016Z,9.20
2022-09-12T19:05:41.186Z,13.80
2022-09-12T19:08:12.633Z,11.32
2022-09-12T19:10:42.335Z,11.63
2022-09-12T19:13:12.112Z,9.50
2022-09-12T19:15:43.185Z,10.73
2022-09-12T19:18:13.340Z,11.43
2022-09-12T19:20:43.154Z,14.43
2022-09-12T19:23:14.359Z,11.82
2022-09-12T19:25:45.818Z,16.13
2022-09-12T19:28:15.534Z,13.95
2022-09-12T19:30:50.010Z,13.50
2022-09-12T19:33:19.979Z,12.48
2022-09-12T19:35:50.018Z,13.23
2022-09-12T19:38:21.591Z,14.65
2022-09-12T19:40:59.328Z,11.33
2022-09-12T19:43:29.795Z,10.43
2022-09-12T19:45:59.770Z,10.73
2022-09-12T19:48:29.864Z,10.55
2022-09-12T19:51:02.199Z,11.00
2022-09-12T19:53:34.350Z,10.05
2022-09-12T19:56:06.418Z,9.23
2022-09-12T19:58:40.635Z,11.85
2022-09-12T20:01:12.380Z,10.15
2022-09-12T20:03:42.975Z,8.40
2022-09-12T20:06:15.261Z,8.23
2022-09-12T20:08:46.626Z,8.27
2022-09-12T20:11:19.459Z,8.95
2022-09-12T20:13:49.654Z,8.55
2022-09-12T20:16:22.738Z,9.95
2022-09-12T20:18:57.413Z,8.23
2022-09-12T20:21:32.189Z,7.75
2022-09-12T20:24:08.785Z,9.77
2022-09-12T20:26:38.964Z,8.00
2022-09-12T20:29:09.715Z,8.05
2022-09-12T20:31:41.535Z,9.00
2022-09-12T20:34:18.354Z,8.77
2022-09-12T20:36:48.415Z,7.45
2022-09-12T20:39:23.294Z,6.75
2022-09-12T20:41:53.603Z,8.77
2022-09-12T20:44:23.837Z,7.00
2022-09-12T20:46:53.730Z,8.15
2022-09-12T20:49:24.100Z,6.85
2022-09-12T20:51:53.985Z,8.00
2022-09-12T20:54:25.891Z,7.55
2022-09-12T20:56:55.957Z,8.05
2022-09-12T20:59:25.858Z,7.10
2022-09-12T21:01:55.718Z,6.55
2022-09-12T21:04:25.852Z,6.57
2022-09-12T21:06:55.696Z,7.07
2022-09-12T21:09:27.003Z,7.30
2022-09-12T21:11:56.913Z,6.60
2022-09-12T21:14:26.812Z,8.80
2022-09-12T21:16:56.747Z,7.55
2022-09-12T21:19:26.574Z,6.05
2022-09-12T21:21:56.360Z,7.20
2022-09-12T21:24:27.803Z,6.68
2022-09-12T21:27:00.952Z,6.80
2022-09-12T21:29:33.526Z,7.15
2022-09-12T21:32:04.032Z,6.03
2022-09-12T21:34:33.896Z,5.90
2022-09-12T21:37:03.802Z,6.25
2022-09-12T21:39:35.033Z,6.25
2022-09-12T21:42:05.333Z,7.95
2022-09-12T21:44:35.164Z,6.75
2022-09-12T21:47:04.959Z,7.55
2022-09-12T21:53:09.033Z,5.28
2022-09-12T21:55:38.982Z,5.32
2022-09-12T21:58:08.836Z,5.55
2022-09-12T22:00:39.269Z,7.18
2022-09-12T22:03:10.734Z,6.28
2022-09-12T22:05:41.557Z,5.50
2022-09-12T22:08:13.357Z,5.22
2022-09-12T22:10:44.614Z,6.40
2022-09-12T22:13:14.621Z,5.43
2022-09-12T22:15:46.509Z,7.88
2022-09-12T22:18:16.635Z,5.85
2022-09-12T22:20:46.656Z,9.70
2022-09-12T22:23:34.899Z,5.10
2022-09-12T22:26:06.018Z,5.20
2022-09-12T22:28:36.235Z,6.55
2022-09-12T22:31:06.658Z,4.90
2022-09-12T22:33:36.722Z,4.38
2022-09-12T22:36:06.938Z,4.30
2022-09-12T22:38:38.920Z,5.85
2022-09-12T22:41:10.818Z,4.78
2022-09-12T22:43:41.235Z,4.82
2022-09-12T22:46:13.735Z,4.95
2022-09-12T22:48:44.428Z,8.90
2022-09-12T22:51:14.927Z,3.97
2022-09-12T22:53:46.475Z,5.10
2022-09-12T22:56:16.357Z,6.13
2022-09-12T22:58:46.797Z,5.65
2022-09-12T23:01:17.194Z,4.13
2022-09-12T23:03:47.523Z,4.30
2022-09-12T23:06:17.719Z,8.93
2022-09-12T23:08:49.195Z,4.55
2022-09-12T23:11:22.558Z,4.07
2022-09-12T23:13:53.361Z,3.70
2022-09-12T23:16:26.156Z,5.32
2022-09-12T23:18:56.056Z,3.58
2022-09-12T23:21:26.078Z,3.45
2022-09-12T23:23:57.799Z,4.47
2022-09-12T23:26:29.996Z,3.23
2022-09-12T23:29:02.279Z,3.60
2022-09-12T23:31:34.812Z,4.13
2022-09-12T23:36:37.499Z,5.07
2022-09-12T23:39:09.125Z,3.67
2022-09-12T23:41:39.261Z,7.65
2022-09-12T23:44:09.658Z,4.05
2022-09-12T23:46:39.581Z,5.28
2022-09-12T23:49:09.914Z,3.90
2022-09-12T23:51:40.034Z,3.95
2022-09-12T23:56:58.919Z,4.72
2022-09-12T23:59:28.880Z,4.13
